logo
App data

Dungeon Hearts

Dungeon Hearts fuses the strategy and pattern matching of puzzle games with the kinetic pace of action games. Align magical runes as they flow along the Fatestream to attack, defend, and conjure magic in frenetic battles against a bestiary of fantastic creatures out to use those same runes against you.
Store | Hub | SteamDB | Site
Developer: Cube Roots Publisher: Devolver Digital
Genre: Casual, Indie, Strategy
Languages: English
Tags: Casual (51), Indie (45), Strategy (34), Puzzle (33), Match 3 (32), Action (17), Singleplayer (11), Arcade (10), Fantasy (10), RPG (9), Female Protagonist (5)
Category: Single-player, Steam Trading Cards, Steam Leaderboards
Release date: Mar 28, 2013
Price: $2.99
Score rank: 29% Userscore: 68% Old userscore: 64% Metascore: 73%
Owners: 50,000 .. 100,000
Followers: 463
Peak concurrent players yesterday: 3
Playtime total: 07:17 (average) 02:46 (median)

Steam Spy is still in beta, so expect major bugs.

Owners data:

Access restricted.

This feature is only available to users with special access rights. Sorry.

If you want to proceed, you need to register or log in first and then back Steam Spy on Patreon. Look for Indie or Pro pledge.

Don't forget to use the same email as on Steam Spy!

Audience in 2 weeks:

Access restricted.

This feature is only available to users with special access rights. Sorry.

If you want to proceed, you need to register or log in first and then back Steam Spy on Patreon. Look for Indie or Pro pledge.

Don't forget to use the same email as on Steam Spy!

Peak daily concurrent players:

CCU data courtesy of SteamDB. Used with permission.

Hourly concurrent players:

Daily Twitch stats:

Hourly Twitch stats:

YouTube:

The views data is based on top 50 videos uploaded last week. Actual number of views might be more than the number shown.

The displayed number of videos uploaded yesterday is limited to 50, so if there were more videos uploaded, the number will still show 50.

If the game has commonly used word as its name (like "FEAR" or "Volume") its number of Youtube views might be wrong.

Games similar to this one:

# Game Release date
Price
Score rank
(Userscore / Metascore)
Owners
Players
Playtime (Median)
1 Slime-san Apr 7, 2017 $14.99100% (100%/78%)100,000 .. 200,0000%00:00 (00:00)
2 Green Elephant 2D Apr 20, 2017 $1.9995% (96%)20,000 .. 50,0000%00:00 (00:00)
3 Deadly Sin 2 Jul 2, 2010 $4.9995% (96%)50,000 .. 100,0000%00:00 (00:00)
4 Fenix Rage Sep 24, 2014 $14.9979% (91%/75%)20,000 .. 50,0000%00:00 (00:00)
5 Invisigun Heroes Feb 8, 2017 $14.9979% (91%)0 .. 20,0000%00:00 (00:00)
6 Port of Call Aug 28, 2015 Free76% (90%)100,000 .. 200,0000%00:00 (00:00)
7 Avernum 6 May 11, 2012 $4.99N/A (N/A)50,000 .. 100,0000%00:00 (00:00)
8 Elven Assassin Sep 10, 2016 $14.9976% (90%)0 .. 20,0000%00:00 (00:00)
9 Offspring Fling! May 11, 2012 $7.9973% (89%/79%)100,000 .. 200,0000%00:00 (00:00)
10 Konung 2 Nov 30, 2004 $2.9973% (89%/35%)50,000 .. 100,0000%00:00 (00:00)
11 The Basement Collection Aug 31, 2012 $3.9968% (87%)200,000 .. 500,0000%00:00 (00:00)
12 They Breathe May 23, 2014 $1.9968% (87%)50,000 .. 100,0000%00:00 (00:00)
13 Freaking Meatbags Feb 4, 2015 $9.9968% (87%/69%)20,000 .. 50,0000%00:00 (00:00)
14 INK Aug 5, 2015 $4.9968% (87%/68%)100,000 .. 200,0000.47%03:42 (01:14)
15 Sublevel Zero Redux Oct 8, 2015 $14.9968% (87%/71%)0 .. 20,0005.56%03:33 (01:11)
16 Eschalon: Book I Nov 17, 2007 Free65% (86%/75%)50,000 .. 100,0000%00:00 (00:00)
17 Evolution VR Feb 3, 2017 $9.9965% (86%)20,000 .. 50,0000%00:00 (00:00)
18 Plug & Play Mar 5, 2015 $2.9962% (85%)100,000 .. 200,0000%00:00 (00:00)
19 BADLAND: Game of the Year Edition May 26, 2015 $9.9960% (84%/79%)100,000 .. 200,0000.56%00:24 (00:08)
20 A Bird Story Nov 7, 2014 $3.9960% (84%/66%)200,000 .. 500,0000.95%00:45 (00:22)
21 Exoplanet: First Contact Dec 9, 2016 $19.9955% (82%)0 .. 20,0000%00:00 (00:00)
22 DarkMaus Jan 26, 2016 $9.9953% (81%/83%)0 .. 20,0000%00:00 (00:00)
23 ChromaGun Feb 16, 2016 $12.9953% (81%)0 .. 20,0000%00:00 (00:00)
24 Paranormal Activity: The Lost Soul Aug 15, 2017 $29.9948% (79%)20,000 .. 50,0000%00:00 (00:00)
25 Sandmason May 4, 2015 $3.9946% (78%)0 .. 20,0000%00:00 (00:00)
26 Project Temporality May 20, 2014 $14.9944% (77%)20,000 .. 50,0000%00:00 (00:00)
27 SickBrick Jan 30, 2015 $19.9944% (77%)50,000 .. 100,0000%00:00 (00:00)
28 Wizorb Mar 14, 2012 $2.9944% (77%/81%)100,000 .. 200,0000%00:00 (00:00)
29 Where's My Mommy? Mar 1, 2016 $5.9943% (76%)0 .. 20,0006.25%00:10 (00:03)
30 Radiation Island Nov 29, 2016 $9.9941% (75%)0 .. 20,0000%00:00 (00:00)
31 Avernum 5 May 11, 2012 $4.99N/A (N/A)50,000 .. 100,0000%00:00 (00:00)
32 Lovely Planet Arcade Jul 22, 2016 $5.9939% (74%/78%)0 .. 20,0000%00:00 (00:00)
33 Eternal Winter Nov 24, 2014 $9.9939% (74%)20,000 .. 50,0000%00:00 (00:00)
34 Secrets of Rætikon Jan 7, 2014 $9.9937% (73%)100,000 .. 200,0000%00:00 (00:00)
35 Reaper - Tale of a Pale Swordsman Feb 7, 2014 $4.9937% (73%)50,000 .. 100,0000%00:00 (00:00)
36 Hotel Anatolia Mar 20, 2017 $0.4937% (73%)50,000 .. 100,0000.28%10:18 (03:26)
37 Spirits Feb 15, 2012 $3.9937% (73%)200,000 .. 500,0000%00:00 (00:00)
38 Cart Racer Jun 5, 2017 $0.9935% (72%)0 .. 20,0000%00:00 (00:00)
39 A Virus Named TOM Aug 1, 2012 $9.9935% (72%/65%)100,000 .. 200,0000%00:00 (00:00)
40 Project Explore Aug 10, 2017 $4.9934% (71%)0 .. 20,0000%00:00 (00:00)
41 Artifact Adventure May 19, 2015 $6.9934% (71%)0 .. 20,0000%00:00 (00:00)
42 The Sacred Tears TRUE Sep 25, 2014 $9.9932% (70%)20,000 .. 50,0000%00:00 (00:00)
43 Sol Trader Jun 6, 2016 $19.99N/A (N/A)0 .. 20,0000%00:00 (00:00)
44 Kill The Bad Guy May 28, 2014 $9.9929% (68%)50,000 .. 100,0001.85%00:25 (00:16)
45 Aaru's Awakening Feb 23, 2015 $14.9926% (66%)20,000 .. 50,0000%00:00 (00:00)
46 Dark Quest Jan 21, 2015 $2.0924% (64%)0 .. 20,0000%00:00 (00:00)
47 The Deep Paths: Labyrinth Of Andokost Oct 26, 2016 $5.9924% (64%)0 .. 20,0000%00:00 (00:00)
48 Warlocks vs Shadows Aug 19, 2015 $13.9920% (61%/68%)20,000 .. 50,0000%00:00 (00:00)
49 Noir Syndrome Apr 2, 2014 $6.9920% (61%)20,000 .. 50,0000%00:00 (00:00)
50 CodeSpells Sep 18, 2015 $19.9919% (60%)0 .. 20,0000%00:00 (00:00)
51 HoCWar Dec 29, 2016 Free13% (53%)20,000 .. 50,0000%00:00 (00:00)
52 Lost in a Forest Jan 21, 2015 $1.9912% (51%)0 .. 20,0000%00:00 (00:00)
53 The Exiled Feb 23, 2017 Free10% (48%)20,000 .. 50,0000%00:00 (00:00)
54 NS2: Combat Oct 31, 2014 $5.9910% (48%)0 .. 20,0000%00:00 (00:00)
55 Dungeons: The Eye of Draconus Aug 1, 2014 $3.999% (47%)20,000 .. 50,0000%00:00 (00:00)
56 TUG Mar 28, 2014 N/A9% (47%)20,000 .. 50,0000%00:00 (00:00)
57 Deadly Sin Mar 27, 2015 $4.99N/A (N/A)0 .. 20,0005.88%10:39 (03:33)
58 Star Nomad Dec 29, 2014 $1.99N/A (N/A)0 .. 20,0000%00:00 (00:00)
59 GiAnt Aug 2, 2016 $2.99N/A (N/A)0 .. 20,0000%00:00 (00:00)
60 Corona MotorSport Mar 13, 2015 $9.996% (40%)0 .. 20,0000%00:00 (00:00)
61 Coldfire Keep May 9, 2014 $4.996% (39%)20,000 .. 50,0000%00:00 (00:00)
62 Forsaken Fortress Strategy Sep 18, 2015 $9.994% (33%)0 .. 20,0000%00:00 (00:00)
63 Guise Of The Wolf Jan 24, 2014 $2.993% (28%)0 .. 20,0000%00:00 (00:00)
64 Isomer Jul 11, 2014 $9.992% (17%)0 .. 20,0000%00:00 (00:00)

Owners of this game also own:

Access restricted.

This feature is only available to users with special access rights. Sorry.

If you want to proceed, you need to register or log in first and then back Steam Spy on Patreon. Look for Indie or Pro pledge.

Don't forget to use the same email as on Steam Spy!

Playtime distribution:

Access restricted.

This feature is only available to users with special access rights. Sorry.

If you want to proceed, you need to register or log in first and then back Steam Spy on Patreon. Look for Indie or Pro pledge.

Don't forget to use the same email as on Steam Spy!

Playtime (2 weeks):

Access restricted.

This feature is only available to users with special access rights. Sorry.

If you want to proceed, you need to register or log in first and then back Steam Spy on Patreon. Look for Indie or Pro pledge.

Don't forget to use the same email as on Steam Spy!

User reviews:

Login required.

Please register or log in to see this information.